Time;durP1;ratioP1;P1;durP2;ratioP2;P2;SDS_P1;SDS_P2;PMS_P1;PMS_P2;Temp;Humidity;BMP_temperature;BMP_pressure;BME280_temperature;BME280_humidity;BME280_pressure;Samples;Min_cycle;Max_cycle;Signal;HPM_P1;HPM_P2
2022/07/11 00:01:45;;;;;;;7.57;5.30;;;16.90;1.00;;;;;;5071643;28;20439;-82
2022/07/11 00:04:11;;;;;;;8.53;5.50;;;17.00;1.00;;;;;;5072853;28;20426;-82
2022/07/11 00:06:37;;;;;;;6.87;5.47;;;16.80;1.00;;;;;;5076754;28;20156;-82
2022/07/11 00:09:32;;;;;;;9.70;5.70;;;16.90;1.00;;;;;;5068715;28;20188;-82
2022/07/11 00:11:58;;;;;;;6.80;5.20;;;16.80;1.00;;;;;;5075234;28;20175;-81
2022/07/11 00:14:24;;;;;;;5.40;4.90;;;16.80;1.00;;;;;;5075936;28;20931;-81
2022/07/11 00:16:55;;;;;;;5.67;5.17;;;16.80;1.00;;;;;;5068366;28;20396;-82
2022/07/11 00:19:21;;;;;;;5.87;5.30;;;16.80;1.00;;;;;;5076283;28;20627;-82
2022/07/11 00:21:51;;;;;;;7.03;5.23;;;16.80;1.00;;;;;;5074878;28;20444;-82
2022/07/11 00:24:32;;;;;;;5.60;5.10;;;16.90;1.00;;;;;;5073417;28;20925;-82
2022/07/11 00:26:58;;;;;;;7.33;6.07;;;16.90;1.00;;;;;;5056565;28;20488;-82
2022/07/11 00:29:26;;;;;;;5.43;4.90;;;16.90;1.00;;;;;;5069841;28;20898;-82
2022/07/11 00:32:08;;;;;;;7.90;5.53;;;16.90;1.00;;;;;;5068343;28;20259;-82
2022/07/11 00:34:38;;;;;;;7.77;4.93;;;16.90;1.00;;;;;;5071997;28;20431;-82
2022/07/11 00:37:25;;;;;;;6.70;4.73;;;16.80;1.00;;;;;;5061449;28;20452;-81
2022/07/11 00:40:02;;;;;;;6.20;5.10;;;16.90;1.00;;;;;;5067135;28;20463;-81
2022/07/11 00:42:32;;;;;;;5.10;4.60;;;16.90;1.00;;;;;;5074782;28;20414;-82
2022/07/11 00:45:43;;;;;;;6.53;5.00;;;16.90;1.00;;;;;;5075824;28;20437;-82
2022/07/11 00:48:09;;;;;;;8.23;4.63;;;17.00;1.00;;;;;;5062109;28;20431;-81
2022/07/11 00:50:50;;;;;;;6.40;4.23;;;17.00;1.00;;;;;;5055865;28;20398;-82
2022/07/11 00:53:20;;;;;;;7.20;4.63;;;17.10;1.00;;;;;;5067195;28;20290;-82
2022/07/11 00:55:53;;;;;;;5.20;4.70;;;17.10;1.00;;;;;;5062614;28;20586;-82
2022/07/11 00:58:38;;;;;;;8.13;4.80;;;17.10;1.00;;;;;;5072175;28;20419;-82
2022/07/11 01:01:25;;;;;;;5.40;4.90;;;17.10;1.00;;;;;;5055789;28;20403;-82
2022/07/11 01:04:02;;;;;;;5.23;4.70;;;17.20;1.00;;;;;;5069536;28;20446;-82
2022/07/11 01:06:28;;;;;;;8.90;4.83;;;17.20;1.00;;;;;;5056824;28;20441;-82
2022/07/11 01:09:25;;;;;;;5.50;4.70;;;17.20;1.00;;;;;;5067878;28;20390;-82
2022/07/11 01:11:51;;;;;;;4.90;4.47;;;17.20;1.00;;;;;;5074331;28;20480;-81
2022/07/11 01:14:17;;;;;;;4.40;4.10;;;17.20;1.00;;;;;;5072825;28;20432;-82
2022/07/11 01:16:55;;;;;;;12.93;4.97;;;17.20;1.00;;;;;;5074265;28;20591;-82
2022/07/11 01:19:21;;;;;;;8.53;4.27;;;17.30;1.00;;;;;;5075613;28;20485;-82
2022/07/11 01:22:07;;;;;;;5.10;4.60;;;17.30;1.00;;;;;;5075269;28;20423;-82
2022/07/11 01:24:38;;;;;;;6.57;4.03;;;17.40;1.00;;;;;;5075059;28;20194;-82
2022/07/11 01:27:09;;;;;;;5.17;4.10;;;17.30;1.00;;;;;;5075299;28;20387;-82
2022/07/11 01:29:39;;;;;;;6.80;4.57;;;17.30;1.00;;;;;;5073832;28;20407;-82
2022/07/11 01:32:37;;;;;;;4.90;4.50;;;17.40;1.00;;;;;;5075020;28;20456;-82
2022/07/11 01:35:03;;;;;;;7.00;4.27;;;17.30;1.00;;;;;;5068044;28;20514;-81
2022/07/11 01:37:44;;;;;;;8.30;4.77;;;17.30;1.00;;;;;;5061801;28;20403;-82
2022/07/11 01:40:10;;;;;;;4.57;4.17;;;17.40;1.00;;;;;;5062566;28;20433;-82
2022/07/11 01:43:01;;;;;;;5.53;4.20;;;17.40;1.00;;;;;;5072631;28;20425;-82
2022/07/11 01:45:32;;;;;;;4.60;4.20;;;17.40;1.00;;;;;;5074370;28;20480;-82
2022/07/11 01:47:57;;;;;;;5.63;4.70;;;17.50;1.00;;;;;;5064632;28;20950;-82
2022/07/11 01:50:23;;;;;;;5.40;4.90;;;17.50;1.00;;;;;;5070803;28;20505;-82
2022/07/11 01:53:07;;;;;;;5.20;4.70;;;17.50;1.00;;;;;;5074735;28;20196;-82
2022/07/11 01:55:33;;;;;;;8.13;4.90;;;17.50;1.00;;;;;;5069318;28;20689;-82
2022/07/11 01:58:08;;;;;;;5.13;4.10;;;17.50;1.00;;;;;;5074261;28;20422;-82
2022/07/11 02:00:34;;;;;;;14.70;4.37;;;17.50;1.00;;;;;;5070318;28;20195;-81
2022/07/11 02:03:08;;;;;;;4.83;4.20;;;17.50;1.00;;;;;;5074482;28;20371;-82
2022/07/11 02:05:50;;;;;;;6.50;4.30;;;17.50;1.00;;;;;;5074538;28;20472;-82
2022/07/11 02:08:37;;;;;;;4.60;4.20;;;17.50;1.00;;;;;;5074384;28;20411;-82
2022/07/11 02:11:37;;;;;;;4.93;4.40;;;17.50;1.00;;;;;;5074418;28;20449;-82
2022/07/11 02:14:03;;;;;;;5.73;4.40;;;17.50;1.00;;;;;;5073722;28;20587;-82
2022/07/11 02:16:38;;;;;;;5.70;3.73;;;17.50;1.00;;;;;;5061139;28;20424;-82
2022/07/11 02:19:08;;;;;;;4.17;3.87;;;17.50;1.00;;;;;;5058421;28;20179;-77
2022/07/11 02:22:07;;;;;;;4.77;4.20;;;17.50;1.00;;;;;;5074256;28;20456;-77
2022/07/11 02:24:33;;;;;;;4.03;3.73;;;17.50;1.00;;;;;;5058221;28;20438;-77
2022/07/11 02:27:13;;;;;;;4.30;3.90;;;17.50;1.00;;;;;;5068071;28;20466;-77
2022/07/11 02:30:07;;;;;;;6.93;4.57;;;17.50;1.00;;;;;;5054471;28;20185;-77
2022/07/11 02:32:33;;;;;;;6.63;4.23;;;17.50;1.00;;;;;;5064492;28;20485;-76
2022/07/11 02:34:59;;;;;;;11.10;4.43;;;17.50;1.00;;;;;;5061533;28;20469;-77
2022/07/11 02:37:25;;;;;;;11.20;3.90;;;17.50;1.00;;;;;;5069710;28;20195;-77
2022/07/11 02:40:08;;;;;;;4.63;4.03;;;17.50;1.00;;;;;;5057034;28;20907;-77
2022/07/11 02:42:38;;;;;;;8.00;4.03;;;17.50;1.00;;;;;;5066585;28;20419;-78
2022/07/11 02:45:08;;;;;;;4.50;4.00;;;17.50;1.00;;;;;;5058468;28;20779;-77
2022/07/11 02:47:36;;;;;;;4.30;3.90;;;17.50;1.00;;;;;;5068370;28;20418;-77
2022/07/11 02:50:12;;;;;;;6.07;4.23;;;17.50;1.00;;;;;;5054147;28;20396;-77
2022/07/11 02:53:07;;;;;;;5.50;4.20;;;17.50;1.00;;;;;;5062925;28;20505;-77
2022/07/11 02:55:37;;;;;;;4.00;3.70;;;17.50;1.00;;;;;;5062939;28;20413;-77
2022/07/11 02:58:04;;;;;;;4.40;3.50;;;17.50;1.00;;;;;;5073906;28;20407;-77
2022/07/11 03:00:37;;;;;;;7.13;4.50;;;17.50;1.00;;;;;;5073873;28;20437;-77
2022/07/11 03:03:13;;;;;;;4.43;4.00;;;17.50;1.00;;;;;;5073900;28;20869;-77
2022/07/11 03:05:39;;;;;;;5.83;4.77;;;17.50;1.00;;;;;;5061497;28;20414;-77
2022/07/11 03:08:07;;;;;;;5.20;4.13;;;17.50;1.00;;;;;;5073831;28;20431;-77
2022/07/11 03:10:38;;;;;;;4.20;3.80;;;17.50;1.00;;;;;;5072605;28;20475;-77
2022/07/11 03:13:04;;;;;;;4.20;3.90;;;17.40;1.00;;;;;;5059656;28;20786;-77
2022/07/11 03:15:30;;;;;;;4.37;3.97;;;17.40;1.00;;;;;;5072288;28;20423;-77
2022/07/11 03:18:08;;;;;;;4.53;4.10;;;17.40;1.00;;;;;;5073741;28;20288;-77
2022/07/11 03:20:39;;;;;;;4.20;3.90;;;17.40;1.00;;;;;;5065080;28;20187;-82
2022/07/11 03:23:07;;;;;;;5.93;4.40;;;17.40;1.00;;;;;;5069215;28;20479;-82
2022/07/11 03:25:33;;;;;;;4.93;4.43;;;17.40;1.00;;;;;;5068142;28;20477;-82
2022/07/11 03:28:08;;;;;;;6.63;4.23;;;17.50;1.00;;;;;;5073376;28;20395;-82
2022/07/11 03:30:37;;;;;;;5.63;4.10;;;17.40;1.00;;;;;;5073510;28;20161;-82
2022/07/11 03:33:20;;;;;;;4.10;3.70;;;17.50;1.00;;;;;;5054445;28;20462;-82
2022/07/11 03:36:37;;;;;;;4.67;3.97;;;17.50;1.00;;;;;;5062502;28;20456;-82
2022/07/11 03:39:07;;;;;;;5.07;4.47;;;17.50;1.00;;;;;;5070676;28;20404;-82
2022/07/11 03:41:38;;;;;;;5.60;3.80;;;17.50;1.00;;;;;;5056992;28;20453;-82
2022/07/11 03:44:08;;;;;;;6.63;4.20;;;17.50;1.00;;;;;;5072946;28;20874;-82
2022/07/11 03:46:38;;;;;;;6.07;4.17;;;17.50;1.00;;;;;;5077058;28;20482;-82
2022/07/11 03:49:04;;;;;;;3.73;3.50;;;17.50;1.00;;;;;;5077229;28;20604;-82
2022/07/11 03:51:30;;;;;;;17.20;4.67;;;17.50;1.00;;;;;;5077451;28;21094;-77
2022/07/11 03:53:56;;;;;;;4.30;4.00;;;17.50;1.00;;;;;;5071402;28;20463;-77
2022/07/11 03:56:26;;;;;;;4.23;3.87;;;17.60;1.00;;;;;;5075257;28;20425;-77
2022/07/11 03:59:09;;;;;;;5.00;4.03;;;17.60;1.00;;;;;;5071577;28;20419;-77
2022/07/11 04:01:37;;;;;;;7.33;4.10;;;17.50;1.00;;;;;;5062003;28;20422;-77
2022/07/11 04:04:08;;;;;;;4.53;4.13;;;17.60;1.00;;;;;;5076993;28;20934;-77
2022/07/11 04:06:34;;;;;;;3.87;3.57;;;17.70;1.00;;;;;;5072219;28;20417;-77
2022/07/11 04:09:02;;;;;;;8.90;4.03;;;17.70;1.00;;;;;;5068689;28;20953;-76
2022/07/11 04:11:27;;;;;;;5.53;4.10;;;17.70;1.00;;;;;;5069844;28;20185;-77
2022/07/11 04:14:08;;;;;;;5.83;4.20;;;17.70;1.00;;;;;;5076237;28;20577;-77
2022/07/11 04:16:34;;;;;;;5.27;4.23;;;17.80;1.00;;;;;;5074614;28;20184;-77
2022/07/11 04:19:00;;;;;;;6.33;3.73;;;17.70;1.00;;;;;;5066198;28;20765;-77
2022/07/11 04:21:32;;;;;;;7.40;4.33;;;17.80;1.00;;;;;;5073758;28;20286;-82
2022/07/11 04:23:57;;;;;;;6.37;4.30;;;17.90;1.00;;;;;;5063456;28;20683;-82
2022/07/11 04:26:25;;;;;;;6.20;4.10;;;17.90;1.00;;;;;;5070793;28;20446;-82
2022/07/11 04:29:07;;;;;;;4.20;3.80;;;18.00;1.00;;;;;;5076350;28;20185;-82
2022/07/11 04:31:44;;;;;;;11.83;5.07;;;18.00;1.00;;;;;;5056613;28;20396;-82
2022/07/11 04:34:26;;;;;;;5.57;3.43;;;18.10;1.00;;;;;;5069325;28;20799;-81
2022/07/11 04:37:37;;;;;;;3.70;3.40;;;18.10;1.00;;;;;;5069303;28;20410;-84
2022/07/11 04:40:25;;;;;;;4.63;4.20;;;18.20;1.00;;;;;;5066106;28;20419;-84
2022/07/11 04:43:07;;;;;;;6.53;4.00;;;18.20;1.00;;;;;;5056872;28;20513;-83
2022/07/11 04:45:38;;;;;;;6.00;3.80;;;18.30;1.00;;;;;;5075695;28;20426;-84
2022/07/11 04:48:20;;;;;;;4.33;3.93;;;18.30;1.00;;;;;;5075932;28;20938;-83
2022/07/11 04:50:49;;;;;;;5.80;3.80;;;18.30;1.00;;;;;;5056524;28;20435;-83
2022/07/11 04:53:33;;;;;;;9.90;4.10;;;18.30;1.00;;;;;;5056113;28;20927;-83
2022/07/11 04:59:32;;;;;;;4.93;3.70;;;18.30;1.00;;;;;;5075109;28;20436;-83
2022/07/11 05:02:25;;;;;;;3.83;3.40;;;18.40;1.00;;;;;;5075837;28;20825;-83
2022/07/11 05:04:56;;;;;;;5.03;3.70;;;18.50;1.00;;;;;;5055951;28;20436;-83
2022/07/11 05:11:07;;;;;;;8.47;3.67;;;18.70;1.00;;;;;;5065052;28;20418;-83
2022/07/11 05:13:33;;;;;;;4.53;3.80;;;18.90;1.00;;;;;;5075168;28;20495;-83
2022/07/11 05:16:19;;;;;;;6.10;3.73;;;19.00;1.00;;;;;;5074046;28;20443;-81
2022/07/11 05:18:50;;;;;;;5.60;3.47;;;19.00;1.00;;;;;;5073735;28;20420;-80
2022/07/11 05:24:37;;;;;;;6.00;3.50;;;19.20;1.00;;;;;;5068707;28;20425;-84
2022/07/11 05:30:38;;;;;;;3.43;3.17;;;19.40;1.00;;;;;;5058125;28;20196;-85
2022/07/11 05:33:25;;;;;;;12.03;3.50;;;19.40;1.00;;;;;;5068541;28;20914;-84
2022/07/11 05:36:02;;;;;;;6.63;3.93;;;19.50;1.00;;;;;;5054480;28;20415;-81
2022/07/11 05:38:49;;;;;;;4.23;3.47;;;19.60;1.00;;;;;;5068912;28;20432;-80
2022/07/11 05:41:26;;;;;;;4.03;3.50;;;19.80;1.00;;;;;;5071812;28;20429;-79
2022/07/11 05:44:02;;;;;;;3.50;3.30;;;19.90;1.00;;;;;;5074617;28;20991;-80
2022/07/11 05:46:40;;;;;;;8.23;3.20;;;20.00;1.00;;;;;;5074500;28;20428;-81
2022/07/11 05:49:21;;;;;;;5.80;3.53;;;20.10;1.00;;;;;;5074438;28;20567;-81
2022/07/11 05:52:02;;;;;;;7.20;3.50;;;20.20;1.00;;;;;;5073000;28;20429;-80
2022/07/11 05:54:44;;;;;;;7.70;3.40;;;20.30;1.00;;;;;;5065434;28;20796;-80
2022/07/11 05:57:20;;;;;;;4.63;3.10;;;20.40;1.00;;;;;;5053707;28;20784;-80
2022/07/11 05:59:50;;;;;;;8.20;3.87;;;20.40;1.00;;;;;;5063579;28;20429;-79
2022/07/11 06:02:26;;;;;;;5.00;3.33;;;20.50;1.00;;;;;;5056208;28;20443;-79
2022/07/11 06:05:02;;;;;;;4.47;3.00;;;20.70;1.00;;;;;;5073374;28;20896;-80
2022/07/11 06:10:49;;;;;;;11.20;3.50;;;21.00;1.00;;;;;;5067297;28;20418;-84
2022/07/11 06:13:15;;;;;;;6.70;2.97;;;21.10;1.00;;;;;;5061699;28;20484;-85
2022/07/11 06:15:41;;;;;;;5.67;3.27;;;21.10;1.00;;;;;;5067540;28;20196;-84
2022/07/11 06:18:06;;;;;;;3.80;2.97;;;21.20;1.00;;;;;;5068141;28;20230;-84
2022/07/11 06:20:32;;;;;;;9.20;3.23;;;21.30;1.00;;;;;;5066302;28;20473;-84
2022/07/11 06:22:58;;;;;;;4.50;2.83;;;21.50;1.00;;;;;;5072650;28;20198;-80
2022/07/11 06:25:24;;;;;;;4.77;2.97;;;21.70;1.00;;;;;;5072710;28;20658;-81
2022/07/11 06:27:49;;;;;;;5.70;3.20;;;21.70;1.00;;;;;;5060068;28;20448;-80
2022/07/11 06:30:15;;;;;;;5.53;3.27;;;21.80;1.00;;;;;;5068664;28;20189;-81
2022/07/11 06:32:40;;;;;;;3.57;3.07;;;21.70;1.00;;;;;;5072826;28;20202;-80
2022/07/11 06:35:07;;;;;;;3.77;3.17;;;21.90;1.00;;;;;;5082758;28;20197;-81
2022/07/11 06:37:33;;;;;;;8.30;2.80;;;22.00;1.00;;;;;;5066841;28;20265;-83
2022/07/11 06:39:59;;;;;;;12.00;3.27;;;22.10;1.00;;;;;;5062766;28;20525;-83
2022/07/11 06:42:24;;;;;;;3.50;2.40;;;22.30;1.00;;;;;;5055182;28;20663;-83
2022/07/11 06:45:08;;;;;;;10.00;3.30;;;22.40;1.00;;;;;;5070074;28;20591;-84
2022/07/11 06:47:55;;;;;;;7.93;3.40;;;22.50;1.00;;;;;;5065909;28;20185;-84
2022/07/11 06:51:01;;;;;;;3.73;3.00;;;22.70;1.00;;;;;;5069334;28;20607;-93
2022/07/11 06:53:38;;;;;;;5.33;3.50;;;22.70;1.00;;;;;;5054724;28;20537;-78
2022/07/11 06:56:25;;;;;;;4.73;3.37;;;22.70;1.00;;;;;;5072923;28;20420;-89
2022/07/11 06:58:51;;;;;;;7.23;3.03;;;22.70;1.00;;;;;;5073185;28;20426;-79
2022/07/11 07:01:17;;;;;;;5.97;2.93;;;22.50;1.00;;;;;;5066270;28;20441;-78
2022/07/11 07:03:43;;;;;;;3.00;2.70;;;22.70;1.00;;;;;;5055650;28;20237;-78
2022/07/11 07:06:37;;;;;;;7.77;3.07;;;22.70;1.00;;;;;;5054269;28;20481;-79
2022/07/11 07:12:25;;;;;;;3.17;2.80;;;22.80;1.00;;;;;;5063592;28;20977;-88
2022/07/11 07:14:51;;;;;;;4.47;3.03;;;23.00;1.00;;;;;;5073229;28;20430;-88
2022/07/11 07:17:17;;;;;;;3.80;3.00;;;23.20;1.00;;;;;;5063337;28;20207;-88
2022/07/11 07:19:44;;;;;;;7.03;2.97;;;23.30;1.00;;;;;;5052853;28;20187;-88
2022/07/11 07:22:16;;;;;;;6.10;3.33;;;23.50;1.00;;;;;;5063019;28;20426;-88
2022/07/11 07:24:42;;;;;;;3.27;2.77;;;23.60;1.00;;;;;;5074026;28;20429;-88
2022/07/11 07:27:08;;;;;;;5.53;2.73;;;23.80;1.00;;;;;;5062445;28;20427;-89
2022/07/11 07:29:34;;;;;;;3.07;2.87;;;23.80;1.00;;;;;;5057001;28;20423;-88
2022/07/11 07:31:59;;;;;;;2.80;2.60;;;23.90;1.00;;;;;;5071542;28;20190;-88
2022/07/11 07:34:25;;;;;;;8.47;3.10;;;24.00;1.00;;;;;;5073174;28;20200;-88
2022/07/11 07:36:51;;;;;;;5.40;3.00;;;23.90;1.00;;;;;;5062295;28;20536;-88
2022/07/11 07:39:17;;;;;;;6.80;4.00;;;23.80;1.00;;;;;;5056847;28;20506;-88
2022/07/11 07:41:43;;;;;;;6.13;2.30;;;23.80;1.00;;;;;;5062970;28;20269;-87
2022/07/11 07:44:09;;;;;;;5.60;2.70;;;24.00;1.00;;;;;;5052988;28;20440;-88
2022/07/11 07:46:35;;;;;;;4.33;3.17;;;24.20;1.00;;;;;;5058184;28;20200;-88
2022/07/11 07:49:02;;;;;;;7.83;3.20;;;24.30;1.00;;;;;;5072634;28;20427;-88
2022/07/11 07:51:28;;;;;;;2.83;2.60;;;24.40;1.00;;;;;;5060811;28;20480;-87
2022/07/11 07:53:54;;;;;;;3.33;2.60;;;24.40;1.00;;;;;;5065091;28;20475;-83
2022/07/11 07:56:20;;;;;;;6.70;2.63;;;24.40;1.00;;;;;;5081177;28;20181;-83
2022/07/11 07:58:45;;;;;;;4.00;2.90;;;24.50;1.00;;;;;;5078570;28;20944;-83
2022/07/11 08:03:56;;;;;;;5.00;2.50;;;24.40;1.00;;;;;;5061199;28;20216;-83
2022/07/11 08:06:21;;;;;;;3.40;2.60;;;24.20;1.00;;;;;;5070930;28;20436;-83
2022/07/11 08:08:47;;;;;;;4.07;2.70;;;24.30;1.00;;;;;;5070092;28;20548;-79
2022/07/11 08:11:13;;;;;;;3.30;3.00;;;24.20;1.00;;;;;;5062724;28;20189;-79
2022/07/11 08:13:39;;;;;;;4.67;2.83;;;24.20;1.00;;;;;;5071280;28;20974;-79
2022/07/11 08:16:06;;;;;;;5.73;2.40;;;24.30;1.00;;;;;;5057967;28;20178;-79
2022/07/11 08:18:33;;;;;;;2.60;2.40;;;24.40;1.00;;;;;;5065277;28;20179;-79
2022/07/11 08:20:58;;;;;;;5.50;2.30;;;24.60;1.00;;;;;;5073609;28;20420;-79
2022/07/11 08:23:24;;;;;;;3.50;2.33;;;24.80;1.00;;;;;;5075729;28;20425;-80
2022/07/11 08:25:50;;;;;;;3.50;2.50;;;24.90;1.00;;;;;;5074225;28;20641;-80
2022/07/11 08:28:16;;;;;;;2.60;2.27;;;25.10;1.00;;;;;;5069000;28;20192;-79
2022/07/11 08:30:42;;;;;;;2.77;2.57;;;25.20;1.00;;;;;;5066589;28;20181;-80
2022/07/11 08:33:07;;;;;;;2.13;2.00;;;25.40;1.00;;;;;;5055439;28;20626;-80
2022/07/11 08:35:33;;;;;;;2.60;2.37;;;25.70;1.00;;;;;;5075116;28;20171;-80
2022/07/11 08:37:58;;;;;;;2.23;1.97;;;26.10;1.00;;;;;;5075658;28;20636;-80
2022/07/11 08:40:24;;;;;;;4.47;1.97;;;26.40;1.00;;;;;;5061976;28;20655;-80
2022/07/11 08:42:50;;;;;;;8.20;2.30;;;26.70;1.00;;;;;;5054016;28;20702;-80
2022/07/11 08:45:17;;;;;;;1.70;1.60;;;26.90;1.00;;;;;;5072564;28;20594;-80
2022/07/11 08:47:44;;;;;;;8.90;1.80;;;27.10;1.00;;;;;;5075037;28;20176;-80
2022/07/11 08:50:14;;;;;;;2.03;1.67;;;27.30;1.00;;;;;;5073601;28;20434;-79
2022/07/11 08:52:39;;;;;;;3.40;1.73;;;27.20;1.00;;;;;;5075314;28;20427;-83
2022/07/11 08:55:08;;;;;;;1.70;1.60;;;27.40;1.00;;;;;;5075283;28;20909;-83
2022/07/11 08:57:35;;;;;;;4.10;1.87;;;27.50;1.00;;;;;;5074949;28;20301;-84
2022/07/11 09:00:01;;;;;;;3.50;1.67;;;27.40;1.00;;;;;;5075193;28;20418;-84
2022/07/11 09:02:28;;;;;;;3.20;1.70;;;26.90;1.00;;;;;;5067610;28;20419;-84
2022/07/11 09:04:54;;;;;;;1.60;1.50;;;26.90;1.00;;;;;;5075099;28;20425;-83
2022/07/11 09:07:20;;;;;;;2.33;1.63;;;26.50;1.00;;;;;;5060078;28;20942;-80
2022/07/11 09:09:45;;;;;;;2.37;1.67;;;26.50;1.00;;;;;;5062898;28;20182;-80
2022/07/11 09:12:14;;;;;;;1.87;1.60;;;26.60;1.00;;;;;;5070890;28;20303;-79
2022/07/11 09:14:45;;;;;;;2.33;1.90;;;26.70;1.00;;;;;;5078195;28;20296;-80
2022/07/11 09:17:10;;;;;;;1.83;1.73;;;26.80;1.00;;;;;;5074190;28;20424;-79
2022/07/11 09:19:39;;;;;;;1.80;1.70;;;26.60;1.00;;;;;;5072868;28;20969;-79
2022/07/11 09:25:24;;;;;;;4.20;1.67;;;27.00;1.00;;;;;;5069707;28;20428;-80
2022/07/11 09:27:56;;;;;;;1.63;1.53;;;27.00;1.00;;;;;;5062350;28;20416;-80
2022/07/11 09:30:31;;;;;;;2.10;1.90;;;26.80;1.00;;;;;;5074353;28;20434;-80
2022/07/11 09:32:58;;;;;;;3.17;1.90;;;26.70;1.00;;;;;;5072635;28;20490;-80
2022/07/11 09:35:29;;;;;;;2.53;1.90;;;26.60;1.00;;;;;;5057870;28;20501;-80
2022/07/11 09:37:55;;;;;;;2.80;2.00;;;26.50;1.00;;;;;;5070128;28;20831;-83
2022/07/11 09:40:22;;;;;;;2.87;2.00;;;26.50;1.00;;;;;;5054309;28;20411;-83
2022/07/11 09:42:48;;;;;;;3.23;2.03;;;26.60;1.00;;;;;;5062916;28;20181;-83
2022/07/11 09:45:14;;;;;;;2.67;2.00;;;26.60;1.00;;;;;;5054278;28;20463;-84
2022/07/11 09:47:48;;;;;;;10.80;2.10;;;26.70;1.00;;;;;;5068442;28;20520;-83
2022/07/11 09:50:17;;;;;;;2.17;2.00;;;26.60;1.00;;;;;;5062365;28;20448;-83
2022/07/11 09:52:58;;;;;;;2.20;2.10;;;26.60;1.00;;;;;;5074192;28;20412;-83
2022/07/11 09:55:25;;;;;;;2.90;2.10;;;26.70;1.00;;;;;;5060716;28;20429;-83
2022/07/11 09:57:51;;;;;;;2.40;1.80;;;26.80;1.00;;;;;;5073464;28;20428;-83
2022/07/11 10:00:17;;;;;;;1.83;1.73;;;27.00;1.00;;;;;;5074051;28;20424;-83
2022/07/11 10:02:43;;;;;;;4.20;2.07;;;27.00;1.00;;;;;;5069851;28;20193;-83
2022/07/11 10:05:08;;;;;;;5.40;2.47;;;27.10;1.00;;;;;;5073557;28;20260;-83
2022/07/11 10:07:34;;;;;;;8.83;2.53;;;27.00;1.00;;;;;;5066752;28;20788;-83
2022/07/11 10:10:03;;;;;;;2.10;2.00;;;26.90;1.00;;;;;;5067938;28;20178;-79
2022/07/11 10:12:32;;;;;;;7.20;1.87;;;27.10;1.00;;;;;;5072552;28;20200;-80
2022/07/11 10:15:03;;;;;;;1.93;1.83;;;27.30;1.00;;;;;;5084355;28;20426;-80
2022/07/11 10:17:47;;;;;;;2.47;2.27;;;27.70;1.00;;;;;;5073354;28;20417;-80
2022/07/11 10:20:26;;;;;;;7.13;2.13;;;27.80;1.00;;;;;;5072884;28;20437;-80
2022/07/11 10:23:26;;;;;;;3.90;1.93;;;27.80;1.00;;;;;;5071291;28;20511;-82
2022/07/11 10:25:57;;;;;;;2.60;2.40;;;27.80;1.00;;;;;;5062416;28;20841;-83
2022/07/11 10:29:13;;;;;;;2.40;2.00;;;27.60;1.00;;;;;;5065264;28;20428;-82
2022/07/11 10:32:02;;;;;;;5.10;2.37;;;27.60;1.00;;;;;;5073930;28;20411;-82
2022/07/11 10:34:32;;;;;;;2.53;2.30;;;27.80;1.00;;;;;;5062936;28;20584;-81
2022/07/11 10:37:04;;;;;;;4.17;2.33;;;28.00;1.00;;;;;;5060407;28;20447;-82
2022/07/11 10:39:42;;;;;;;3.77;2.73;;;27.80;1.00;;;;;;5069242;28;20417;-79
2022/07/11 10:42:20;;;;;;;2.63;2.43;;;28.20;1.00;;;;;;5062300;28;20938;-79
2022/07/11 10:44:51;;;;;;;2.60;2.40;;;28.40;1.00;;;;;;5059800;28;20959;-79
2022/07/11 10:47:37;;;;;;;2.40;2.20;;;28.40;1.00;;;;;;5073868;28;20428;-80
2022/07/11 10:50:13;;;;;;;2.33;2.20;;;28.50;1.00;;;;;;5060399;28;20411;-80
2022/07/11 10:52:48;;;;;;;2.60;2.40;;;28.60;1.00;;;;;;5061986;28;20421;-79
2022/07/11 10:55:43;;;;;;;8.47;2.10;;;28.40;1.00;;;;;;5072350;28;20500;-80
2022/07/11 10:58:32;;;;;;;2.53;2.37;;;28.20;1.00;;;;;;5073545;28;20451;-79
2022/07/11 11:01:13;;;;;;;3.73;2.50;;;27.60;1.00;;;;;;5073796;28;20550;-80
2022/07/11 11:03:44;;;;;;;2.37;2.10;;;27.70;1.00;;;;;;5053531;28;20419;-80
2022/07/11 11:06:55;;;;;;;3.27;2.07;;;28.40;1.00;;;;;;5061687;28;20417;-80
2022/07/11 11:09:38;;;;;;;4.67;1.90;;;28.70;1.00;;;;;;5059293;28;20451;-83
2022/07/11 11:12:05;;;;;;;16.37;2.50;;;29.00;1.00;;;;;;5061915;28;20429;-83
2022/07/11 11:14:38;;;;;;;2.83;2.53;;;29.10;1.00;;;;;;5071395;28;20885;-83
2022/07/11 11:17:37;;;;;;;2.13;2.03;;;28.90;1.00;;;;;;5071960;28;20895;-83
2022/07/11 11:20:04;;;;;;;2.80;2.13;;;28.50;1.00;;;;;;5073323;28;20970;-77
2022/07/11 11:22:30;;;;;;;2.77;2.10;;;28.20;1.00;;;;;;5057934;28;20461;-79
2022/07/11 11:24:57;;;;;;;6.17;2.37;;;28.00;1.00;;;;;;5073555;28;20399;-80
2022/07/11 11:27:26;;;;;;;2.03;1.93;;;27.90;1.00;;;;;;5070622;28;20421;-76
2022/07/11 11:29:56;;;;;;;2.03;1.77;;;28.10;1.00;;;;;;5064511;28;20509;-76
2022/07/11 11:32:30;;;;;;;3.10;1.87;;;28.10;1.00;;;;;;5073448;28;20427;-77
2022/07/11 11:34:58;;;;;;;2.30;2.10;;;28.10;1.00;;;;;;5072057;28;20423;-77
2022/07/11 11:37:24;;;;;;;2.37;2.17;;;28.20;1.00;;;;;;5063234;28;20420;-77
2022/07/11 11:39:57;;;;;;;3.23;1.80;;;28.20;1.00;;;;;;5067631;28;20453;-77
2022/07/11 11:42:23;;;;;;;1.83;1.73;;;28.20;1.00;;;;;;5073098;28;20406;-77
2022/07/11 11:44:55;;;;;;;4.60;2.10;;;27.90;1.00;;;;;;5061325;28;20434;-77
2022/07/11 11:47:21;;;;;;;1.57;1.47;;;27.90;1.00;;;;;;5061747;28;20179;-77
2022/07/11 11:49:50;;;;;;;7.60;1.80;;;28.30;1.00;;;;;;5060695;28;20420;-77
2022/07/11 11:52:17;;;;;;;2.70;1.70;;;28.40;1.00;;;;;;5087192;28;20470;-77
2022/07/11 11:54:45;;;;;;;2.10;1.80;;;28.30;1.00;;;;;;5072455;28;20885;-78
2022/07/11 11:57:14;;;;;;;1.67;1.57;;;28.20;1.00;;;;;;5077114;28;20895;-77
2022/07/11 11:59:44;;;;;;;1.60;1.50;;;28.20;1.00;;;;;;5076867;28;20407;-77
2022/07/11 12:02:10;;;;;;;1.77;1.67;;;27.80;1.00;;;;;;5077142;28;20422;-77
2022/07/11 12:04:36;;;;;;;4.00;1.67;;;27.70;1.00;;;;;;5076600;28;20431;-77
2022/07/11 12:07:04;;;;;;;2.20;2.00;;;27.90;1.00;;;;;;5077079;28;20244;-77
2022/07/11 12:18:25;;;;;;;1.80;1.70;;;28.50;1.00;;;;;;5014691;28;20458;-76
2022/07/11 12:21:08;;;;;;;1.60;1.50;;;28.60;1.00;;;;;;5003630;28;20456;-76
2022/07/11 12:23:38;;;;;;;1.60;1.50;;;28.70;1.00;;;;;;5018796;28;20185;-76
2022/07/11 12:26:08;;;;;;;4.67;2.00;;;28.70;1.00;;;;;;4999029;28;20441;-76
2022/07/11 12:29:16;;;;;;;1.70;1.60;;;28.50;1.00;;;;;;5009160;28;20444;-76
2022/07/11 12:31:48;;;;;;;1.80;1.70;;;28.30;1.00;;;;;;5011101;28;20442;-77
2022/07/11 12:34:19;;;;;;;6.47;1.97;;;28.10;1.00;;;;;;5003028;28;20493;-77
2022/07/11 12:37:18;;;;;;;6.70;1.83;;;28.20;1.00;;;;;;5026141;28;20439;-76
2022/07/11 12:39:56;;;;;;;1.97;1.73;;;28.40;1.00;;;;;;4956214;29;20430;-73
2022/07/11 12:42:26;;;;;;;2.90;1.40;;;28.50;1.00;;;;;;4955588;28;20988;-73
2022/07/11 12:45:07;;;;;;;3.23;1.67;;;28.70;1.00;;;;;;4959704;28;20978;-73
2022/07/11 12:47:41;;;;;;;1.70;1.60;;;28.60;1.00;;;;;;4965575;28;20454;-73
2022/07/11 12:50:16;;;;;;;1.80;1.70;;;28.70;1.00;;;;;;4950673;28;20864;-73
2022/07/11 12:52:47;;;;;;;1.67;1.57;;;28.50;1.00;;;;;;4951068;28;20432;-73
2022/07/11 12:55:27;;;;;;;2.80;1.70;;;28.40;1.00;;;;;;4986551;28;20473;-76
2022/07/11 12:58:05;;;;;;;3.37;1.67;;;28.40;1.00;;;;;;5002770;28;20428;-76
2022/07/11 13:00:31;;;;;;;1.67;1.57;;;28.40;1.00;;;;;;4998579;28;20825;-76
2022/07/11 13:02:58;;;;;;;3.63;1.50;;;28.50;1.00;;;;;;5013578;28;20447;-80
2022/07/11 13:05:24;;;;;;;3.13;1.50;;;28.50;1.00;;;;;;5000667;28;20465;-81
2022/07/11 13:10:55;;;;;;;3.90;1.60;;;28.70;1.00;;;;;;5009513;28;20451;-75
2022/07/11 13:13:21;;;;;;;1.40;1.30;;;28.80;1.00;;;;;;5007855;28;20483;-76
2022/07/11 13:15:47;;;;;;;2.63;1.37;;;28.90;1.00;;;;;;5036108;28;20780;-75
2022/07/11 13:18:14;;;;;;;2.57;1.20;;;28.90;1.00;;;;;;5075052;28;20454;-75
2022/07/11 13:20:40;;;;;;;1.37;1.27;;;28.90;1.00;;;;;;5075166;28;20420;-75
2022/07/11 13:23:08;;;;;;;3.17;1.40;;;29.00;1.00;;;;;;5075340;28;20423;-75
2022/07/11 13:25:34;;;;;;;1.43;1.33;;;29.00;1.00;;;;;;5071437;28;20500;-75
2022/07/11 13:28:00;;;;;;;1.33;1.23;;;29.10;1.00;;;;;;5074678;28;20794;-76
2022/07/11 13:30:28;;;;;;;1.50;1.40;;;29.10;1.00;;;;;;5074499;28;20185;-76
2022/07/11 13:32:54;;;;;;;1.10;1.10;;;29.20;1.00;;;;;;5059575;28;20441;-76
2022/07/11 13:35:20;;;;;;;1.67;1.40;;;29.20;1.00;;;;;;5072853;28;20431;-75
2022/07/11 13:37:46;;;;;;;1.37;1.33;;;29.30;1.00;;;;;;5074195;28;20606;-75
2022/07/11 13:40:18;;;;;;;1.50;1.30;;;29.40;1.00;;;;;;5065607;28;20187;-76
2022/07/11 13:42:49;;;;;;;1.47;1.37;;;29.30;1.00;;;;;;5054417;28;20491;-76
2022/07/11 13:45:22;;;;;;;1.10;1.10;;;29.30;1.00;;;;;;5064400;28;20433;-76
2022/07/11 13:47:49;;;;;;;1.90;1.13;;;29.10;1.00;;;;;;5074051;28;20439;-76
2022/07/11 13:50:15;;;;;;;3.63;1.40;;;29.20;1.00;;;;;;5073973;28;20502;-76
2022/07/11 13:52:41;;;;;;;2.30;1.40;;;29.40;1.00;;;;;;5073935;28;20416;-76
2022/07/11 13:55:07;;;;;;;1.40;1.30;;;29.70;1.00;;;;;;5074014;28;20483;-75
2022/07/11 13:57:36;;;;;;;2.30;1.10;;;29.90;1.00;;;;;;5073871;28;20179;-76
2022/07/11 14:00:03;;;;;;;3.23;1.33;;;30.20;1.00;;;;;;5073770;28;20188;-76
2022/07/11 14:02:30;;;;;;;1.20;1.20;;;29.90;1.00;;;;;;5060429;28;20428;-76
2022/07/11 14:04:56;;;;;;;1.83;1.33;;;29.50;1.00;;;;;;5073652;28;20896;-76